createdAt,value
2023-05-14T00:01:33.983Z,11.13
2023-05-14T00:04:38.026Z,11.28
2023-05-14T00:07:41.883Z,11.18
2023-05-14T00:10:45.548Z,11.13
2023-05-14T00:13:51.208Z,11.51
2023-05-14T00:16:54.442Z,11.59
2023-05-14T00:19:58.392Z,11.72
2023-05-14T00:23:02.143Z,11.97
2023-05-14T00:26:05.489Z,12.09
2023-05-14T00:29:09.376Z,12.33
2023-05-14T00:32:12.832Z,12.59
2023-05-14T00:35:16.830Z,12.53
2023-05-14T00:38:20.696Z,12.65
2023-05-14T00:41:24.738Z,12.46
2023-05-14T00:44:28.558Z,12.73
2023-05-14T00:47:32.845Z,12.98
2023-05-14T00:50:36.653Z,12.81
2023-05-14T00:53:41.042Z,12.80
2023-05-14T00:56:46.927Z,12.83
2023-05-14T00:59:51.690Z,12.62
2023-05-14T01:02:54.876Z,12.61
2023-05-14T01:06:36.030Z,12.73
2023-05-14T01:09:54.675Z,12.62
2023-05-14T01:13:00.897Z,12.52
2023-05-14T01:16:05.641Z,12.38
2023-05-14T01:19:23.233Z,12.49
2023-05-14T01:22:27.026Z,12.74
2023-05-14T01:25:32.006Z,13.04
2023-05-14T01:28:38.341Z,13.20
2023-05-14T01:31:44.989Z,13.08
2023-05-14T01:34:49.438Z,12.94
2023-05-14T01:37:59.597Z,13.00
2023-05-14T01:41:04.978Z,12.71
2023-05-14T01:44:11.045Z,13.02
2023-05-14T01:47:17.386Z,13.48
2023-05-14T01:50:21.526Z,13.66
2023-05-14T01:53:26.054Z,13.31
2023-05-14T01:56:29.270Z,13.32
2023-05-14T01:59:32.963Z,13.12
2023-05-14T02:02:36.494Z,13.03
2023-05-14T02:05:39.756Z,13.05
2023-05-14T02:08:42.842Z,12.78
2023-05-14T02:11:46.247Z,12.48
2023-05-14T02:14:49.895Z,11.91
2023-05-14T02:17:53.572Z,11.71
2023-05-14T02:20:58.396Z,11.52
2023-05-14T02:24:02.197Z,11.48
2023-05-14T02:27:07.276Z,10.97
2023-05-14T02:30:12.073Z,10.62
2023-05-14T02:33:16.540Z,10.73
2023-05-14T02:36:20.543Z,10.70
2023-05-14T02:39:24.319Z,11.10
2023-05-14T02:42:28.080Z,11.21
2023-05-14T02:45:32.759Z,10.70
2023-05-14T02:48:35.966Z,10.82
2023-05-14T02:51:39.599Z,10.73
2023-05-14T02:54:42.956Z,10.79
2023-05-14T02:57:47.940Z,10.57
2023-05-14T03:00:52.199Z,9.71
2023-05-14T03:03:56.657Z,8.85
2023-05-14T03:07:00.735Z,8.58
2023-05-14T03:10:04.807Z,8.53
2023-05-14T03:13:08.912Z,8.55
2023-05-14T03:16:12.728Z,9.11
2023-05-14T03:19:16.498Z,9.09
2023-05-14T03:22:20.439Z,8.91
2023-05-14T03:25:24.286Z,8.29
2023-05-14T03:28:28.008Z,8.15
2023-05-14T03:31:32.215Z,8.21
2023-05-14T03:34:36.740Z,8.55
2023-05-14T03:37:40.438Z,8.45
2023-05-14T03:40:46.511Z,8.37
2023-05-14T03:43:49.984Z,8.28
2023-05-14T03:46:54.207Z,8.24
2023-05-14T03:49:58.469Z,8.13
2023-05-14T03:53:02.736Z,8.16
2023-05-14T03:56:06.697Z,8.20
2023-05-14T03:59:10.908Z,8.14
2023-05-14T04:02:14.638Z,8.02
2023-05-14T04:05:18.453Z,7.62
2023-05-14T04:08:22.051Z,7.62
2023-05-14T04:11:28.794Z,7.99
2023-05-14T04:14:33.959Z,8.33
2023-05-14T04:17:37.107Z,8.44
2023-05-14T04:20:41.091Z,8.14
2023-05-14T04:23:44.455Z,8.00
2023-05-14T04:26:48.093Z,7.55
2023-05-14T04:29:52.170Z,7.49
2023-05-14T04:32:56.336Z,7.71
2023-05-14T04:36:00.556Z,7.73
2023-05-14T04:39:04.720Z,7.57
2023-05-14T04:42:09.108Z,7.64
2023-05-14T04:45:14.060Z,7.65
2023-05-14T04:48:18.133Z,7.74
2023-05-14T04:51:21.848Z,7.73
2023-05-14T04:54:26.166Z,7.84
2023-05-14T04:57:29.826Z,7.38
2023-05-14T05:00:34.289Z,7.47
2023-05-14T05:03:37.992Z,7.55
2023-05-14T05:06:41.994Z,7.62
2023-05-14T05:09:45.898Z,7.86
2023-05-14T05:12:49.997Z,8.31
2023-05-14T05:15:53.821Z,8.49
2023-05-14T05:18:58.130Z,8.69
2023-05-14T05:22:01.262Z,9.01
2023-05-14T05:25:09.090Z,9.28
2023-05-14T05:28:12.661Z,9.39
2023-05-14T05:31:18.269Z,9.28
2023-05-14T05:34:23.560Z,9.49
2023-05-14T05:37:27.315Z,9.34
2023-05-14T05:40:30.876Z,9.40
2023-05-14T05:43:35.076Z,9.42
2023-05-14T05:46:38.867Z,9.03
2023-05-14T05:49:42.879Z,9.22
2023-05-14T05:52:46.698Z,8.96
2023-05-14T05:55:52.377Z,9.02
2023-05-14T05:58:56.802Z,9.03
2023-05-14T06:02:00.306Z,9.17
2023-05-14T06:05:04.329Z,9.17
2023-05-14T06:08:08.222Z,9.71
2023-05-14T06:11:11.412Z,10.54
2023-05-14T06:14:15.457Z,10.37
2023-05-14T06:17:19.215Z,10.63
2023-05-14T06:20:23.528Z,10.72
2023-05-14T06:23:27.637Z,10.97
2023-05-14T06:26:31.772Z,11.73
2023-05-14T06:29:35.465Z,12.57
2023-05-14T06:32:39.395Z,12.76
2023-05-14T06:35:43.146Z,13.65
2023-05-14T06:38:48.179Z,13.91
2023-05-14T06:41:51.921Z,14.19
2023-05-14T06:44:55.705Z,14.09
2023-05-14T06:47:58.958Z,13.42
2023-05-14T06:51:03.899Z,13.00
2023-05-14T06:54:07.595Z,13.22
2023-05-14T06:57:11.125Z,13.75
2023-05-14T07:00:16.109Z,15.87
2023-05-14T07:03:19.938Z,18.97
2023-05-14T07:06:24.149Z,20.76
2023-05-14T07:09:28.026Z,18.51
2023-05-14T07:12:31.732Z,17.30
2023-05-14T07:15:35.121Z,17.28
2023-05-14T07:18:39.104Z,17.20
2023-05-14T07:22:30.792Z,16.51
2023-05-14T07:25:34.491Z,17.82
2023-05-14T07:28:37.662Z,18.03
2023-05-14T07:31:41.206Z,19.74
2023-05-14T07:34:45.582Z,21.50
2023-05-14T07:37:48.752Z,24.19
2023-05-14T07:40:51.912Z,25.56
2023-05-14T07:43:55.001Z,21.80
2023-05-14T07:46:58.029Z,19.74
2023-05-14T07:50:01.517Z,19.95
2023-05-14T07:53:05.380Z,22.24
2023-05-14T07:56:09.580Z,18.99
2023-05-14T07:59:12.607Z,16.11
2023-05-14T08:02:17.567Z,15.00
2023-05-14T08:05:21.095Z,14.44
2023-05-14T08:08:24.840Z,13.17
2023-05-14T08:11:28.589Z,12.41
2023-05-14T08:14:32.307Z,11.93
2023-05-14T08:17:37.004Z,11.60
2023-05-14T08:20:40.480Z,11.72
2023-05-14T08:23:44.782Z,12.21
2023-05-14T08:26:47.992Z,12.36
2023-05-14T08:29:51.990Z,12.60
2023-05-14T08:32:55.312Z,12.77
2023-05-14T08:36:00.985Z,12.28
2023-05-14T08:39:04.148Z,12.57
2023-05-14T08:42:08.805Z,12.90
2023-05-14T08:45:14.976Z,13.01
2023-05-14T08:48:22.028Z,13.18
2023-05-14T08:51:27.408Z,13.22
2023-05-14T08:54:33.069Z,13.88
2023-05-14T08:57:37.006Z,14.78
2023-05-14T09:00:40.111Z,17.77
2023-05-14T09:03:44.471Z,17.75
2023-05-14T09:06:50.557Z,18.19
2023-05-14T09:09:54.322Z,19.77
2023-05-14T09:12:57.687Z,21.35
2023-05-14T09:16:01.953Z,21.00
2023-05-14T09:19:08.023Z,23.03
2023-05-14T09:22:14.248Z,22.30
2023-05-14T09:25:17.737Z,22.21
2023-05-14T09:28:23.828Z,20.14
2023-05-14T09:31:27.117Z,19.66
2023-05-14T09:34:33.104Z,21.05
2023-05-14T09:37:37.579Z,18.88
2023-05-14T09:40:41.720Z,16.91
2023-05-14T09:43:45.318Z,17.51
2023-05-14T09:46:50.114Z,19.94
2023-05-14T09:49:53.977Z,21.10
2023-05-14T09:52:58.040Z,20.45
2023-05-14T09:56:01.849Z,20.92
2023-05-14T09:59:06.645Z,21.13
2023-05-14T10:02:21.534Z,21.37
2023-05-14T10:05:27.728Z,20.27
2023-05-14T10:08:36.656Z,20.06
2023-05-14T10:11:45.000Z,18.62
2023-05-14T10:14:53.758Z,17.06
2023-05-14T10:18:01.614Z,15.16
2023-05-14T10:21:06.856Z,14.05
2023-05-14T10:24:11.975Z,13.32
2023-05-14T10:27:17.653Z,12.90
2023-05-14T10:30:26.242Z,12.99
2023-05-14T10:33:30.331Z,12.89
2023-05-14T10:36:34.414Z,12.57
2023-05-14T10:39:54.334Z,12.67
2023-05-14T10:43:00.334Z,12.80
2023-05-14T10:46:03.637Z,12.60
2023-05-14T10:49:06.856Z,12.19
2023-05-14T10:52:11.673Z,12.04
2023-05-14T10:55:17.104Z,12.58
2023-05-14T10:58:22.101Z,12.53
2023-05-14T11:01:29.488Z,11.84
2023-05-14T11:04:32.939Z,11.13
2023-05-14T11:07:42.027Z,11.08
2023-05-14T11:10:47.423Z,10.67
2023-05-14T11:13:52.689Z,10.39
2023-05-14T11:16:56.219Z,10.28
2023-05-14T11:20:00.822Z,10.31
2023-05-14T11:23:04.108Z,9.76
2023-05-14T11:26:08.218Z,9.42
2023-05-14T11:29:11.482Z,9.44
2023-05-14T11:32:16.491Z,9.53
2023-05-14T11:35:19.474Z,9.74
2023-05-14T11:38:23.798Z,9.42
2023-05-14T11:41:28.733Z,9.24
2023-05-14T11:44:33.242Z,8.92
2023-05-14T11:47:36.350Z,8.64
2023-05-14T11:50:39.418Z,8.27
2023-05-14T11:53:43.225Z,7.99
2023-05-14T11:56:52.299Z,7.92
2023-05-14T11:59:59.861Z,7.65
2023-05-14T12:03:04.345Z,7.38
2023-05-14T12:06:08.767Z,7.23
2023-05-14T12:09:14.077Z,7.16
2023-05-14T12:12:22.602Z,6.96
2023-05-14T12:15:27.687Z,6.83
2023-05-14T12:18:33.098Z,6.59
2023-05-14T12:21:37.562Z,6.42
2023-05-14T12:24:41.757Z,6.32
2023-05-14T12:27:46.537Z,6.20
2023-05-14T12:30:56.984Z,6.11
2023-05-14T12:34:01.073Z,6.07
2023-05-14T12:37:05.599Z,5.92
2023-05-14T12:40:12.401Z,5.81
2023-05-14T12:43:16.258Z,5.63
2023-05-14T12:46:20.543Z,5.53
2023-05-14T12:49:24.046Z,5.52
2023-05-14T12:52:37.436Z,5.47
2023-05-14T12:55:41.311Z,5.28
2023-05-14T12:58:47.628Z,5.18
2023-05-14T13:01:51.274Z,5.12
2023-05-14T13:04:55.180Z,5.00
2023-05-14T13:08:01.250Z,5.01
2023-05-14T13:11:05.454Z,4.99
2023-05-14T13:14:09.206Z,4.91
2023-05-14T13:17:12.579Z,4.82
2023-05-14T13:20:18.490Z,4.84
2023-05-14T13:23:22.649Z,4.77
2023-05-14T13:26:28.792Z,4.66
2023-05-14T13:29:32.913Z,4.73
2023-05-14T13:32:36.596Z,4.81
2023-05-14T13:35:40.581Z,4.84
2023-05-14T13:38:46.369Z,4.90
2023-05-14T13:41:51.690Z,4.81
2023-05-14T13:44:56.818Z,4.72
2023-05-14T13:48:00.259Z,4.78
2023-05-14T13:51:04.214Z,4.81
2023-05-14T13:54:08.329Z,4.67
2023-05-14T13:57:12.192Z,4.57
2023-05-14T14:00:16.752Z,4.58
2023-05-14T14:03:22.326Z,4.44
2023-05-14T14:06:30.507Z,4.51
2023-05-14T14:09:36.532Z,4.48
2023-05-14T14:12:40.586Z,4.37
2023-05-14T14:15:44.926Z,4.40
2023-05-14T14:18:49.016Z,4.41
2023-05-14T14:21:52.405Z,4.30
2023-05-14T14:24:56.696Z,4.37
2023-05-14T14:28:00.678Z,4.14
2023-05-14T14:31:04.813Z,3.91
2023-05-14T14:34:08.609Z,3.85
2023-05-14T14:37:12.773Z,3.88
2023-05-14T14:40:17.671Z,3.79
2023-05-14T14:43:21.816Z,3.75
2023-05-14T14:46:25.565Z,3.65
2023-05-14T14:49:29.716Z,3.71
2023-05-14T14:52:33.641Z,3.65
2023-05-14T14:55:37.702Z,3.63
2023-05-14T14:58:41.515Z,3.67
2023-05-14T15:01:45.526Z,3.60
2023-05-14T15:04:49.531Z,3.65
2023-05-14T15:07:53.312Z,3.55
2023-05-14T15:10:57.983Z,3.49
2023-05-14T15:14:01.797Z,3.52
2023-05-14T15:17:05.871Z,3.35
2023-05-14T15:20:10.645Z,3.37
2023-05-14T15:23:14.779Z,3.29
2023-05-14T15:26:18.418Z,3.25
2023-05-14T15:29:22.592Z,3.09
2023-05-14T15:32:27.783Z,2.93
2023-05-14T15:35:31.925Z,2.86
2023-05-14T15:38:35.851Z,2.95
2023-05-14T15:41:39.886Z,2.83
2023-05-14T15:44:43.434Z,2.72
2023-05-14T15:47:47.595Z,2.59
2023-05-14T15:50:52.182Z,2.53
2023-05-14T15:53:56.600Z,2.44
2023-05-14T15:57:00.300Z,2.46
2023-05-14T16:00:14.006Z,2.60
2023-05-14T16:03:18.417Z,2.76
2023-05-14T16:06:21.517Z,2.86
2023-05-14T16:09:25.264Z,2.57
2023-05-14T16:12:29.511Z,2.54
2023-05-14T16:15:32.529Z,2.42
2023-05-14T16:18:36.635Z,2.39
2023-05-14T16:21:39.631Z,2.35
2023-05-14T16:24:43.733Z,2.29
2023-05-14T16:27:47.540Z,2.36
2023-05-14T16:30:50.966Z,2.24
2023-05-14T16:33:54.760Z,2.27
2023-05-14T16:36:58.284Z,2.52
2023-05-14T16:40:02.515Z,2.48
2023-05-14T16:43:06.937Z,2.30
2023-05-14T16:46:10.868Z,2.25
2023-05-14T16:49:15.115Z,2.31
2023-05-14T16:52:18.917Z,2.22
2023-05-14T16:55:23.118Z,2.16
2023-05-14T16:58:26.656Z,2.07
2023-05-14T17:01:30.795Z,2.26
2023-05-14T17:04:38.936Z,2.29
2023-05-14T17:07:42.728Z,2.26
2023-05-14T17:10:46.466Z,1.95
2023-05-14T17:13:50.514Z,1.89
2023-05-14T17:16:54.869Z,2.04
2023-05-14T17:19:59.141Z,2.04
2023-05-14T17:23:03.060Z,1.98
2023-05-14T17:26:07.135Z,2.02
2023-05-14T17:29:10.769Z,1.98
2023-05-14T17:32:14.775Z,2.00
2023-05-14T17:35:18.161Z,1.92
2023-05-14T17:38:22.277Z,1.90
2023-05-14T17:41:26.036Z,1.95
2023-05-14T17:44:31.008Z,1.91
2023-05-14T17:47:34.701Z,1.99
2023-05-14T17:50:40.169Z,1.92
2023-05-14T17:53:43.199Z,1.79
2023-05-14T17:56:49.047Z,1.72
2023-05-14T17:59:52.709Z,1.70
2023-05-14T18:02:56.135Z,1.61
2023-05-14T18:06:00.234Z,1.55
2023-05-14T18:09:04.480Z,1.51
2023-05-14T18:12:08.158Z,1.50
2023-05-14T18:15:11.719Z,1.44
2023-05-14T18:18:17.684Z,1.42
2023-05-14T18:21:21.838Z,1.41
2023-05-14T18:24:25.550Z,1.37
2023-05-14T18:27:29.023Z,1.23
2023-05-14T18:30:32.084Z,1.11
2023-05-14T18:33:36.003Z,1.03
2023-05-14T18:36:39.987Z,1.00
2023-05-14T18:39:44.064Z,1.05
2023-05-14T18:42:47.461Z,0.93
2023-05-14T18:45:51.621Z,0.85
2023-05-14T18:48:57.068Z,0.80
2023-05-14T18:52:01.105Z,0.77
2023-05-14T18:55:05.027Z,0.76
2023-05-14T18:58:09.229Z,0.74
2023-05-14T19:01:13.002Z,0.84
2023-05-14T19:04:17.125Z,0.84
2023-05-14T19:07:21.134Z,0.78
2023-05-14T19:10:25.359Z,0.74
2023-05-14T19:13:29.232Z,0.71
2023-05-14T19:16:33.228Z,0.68
2023-05-14T19:19:37.828Z,0.75
2023-05-14T19:22:41.930Z,0.69
2023-05-14T19:25:45.909Z,0.64
2023-05-14T19:28:49.253Z,0.64
2023-05-14T19:31:53.111Z,0.62
2023-05-14T19:34:56.882Z,0.63
2023-05-14T19:38:00.691Z,0.66
2023-05-14T19:41:04.466Z,0.55
2023-05-14T19:44:08.409Z,0.58
2023-05-14T19:47:12.328Z,0.64
2023-05-14T19:50:16.568Z,0.56
2023-05-14T19:53:20.218Z,0.51
2023-05-14T19:56:25.720Z,0.39
2023-05-14T19:59:31.141Z,0.45
2023-05-14T20:02:35.029Z,0.50
2023-05-14T20:05:38.913Z,0.47
2023-05-14T20:08:42.962Z,0.57
2023-05-14T20:11:46.016Z,0.43
2023-05-14T20:14:49.765Z,0.39
2023-05-14T20:17:53.939Z,0.49
2023-05-14T20:20:57.808Z,0.48
2023-05-14T20:24:01.716Z,0.33
2023-05-14T20:27:06.033Z,0.33
2023-05-14T20:30:10.228Z,0.38
2023-05-14T20:33:14.254Z,0.31
2023-05-14T20:36:18.278Z,0.34
2023-05-14T20:39:21.992Z,0.39
2023-05-14T20:42:26.671Z,0.45
2023-05-14T20:45:30.825Z,0.36
2023-05-14T20:48:34.690Z,0.39
2023-05-14T20:51:38.410Z,0.47
2023-05-14T20:54:42.805Z,0.36
2023-05-14T20:57:46.938Z,0.28
2023-05-14T21:00:50.866Z,0.32
2023-05-14T21:03:54.675Z,0.40
2023-05-14T21:06:58.667Z,0.50
2023-05-14T21:10:02.322Z,0.47
2023-05-14T21:13:07.735Z,0.37
2023-05-14T21:16:12.415Z,0.25
2023-05-14T21:19:16.257Z,0.26
2023-05-14T21:22:19.988Z,0.23
2023-05-14T21:25:24.346Z,0.36
2023-05-14T21:28:28.502Z,0.51
2023-05-14T21:31:32.659Z,0.64
2023-05-14T21:34:36.487Z,0.78
2023-05-14T21:37:40.812Z,0.76
2023-05-14T21:40:44.552Z,0.78
2023-05-14T21:43:48.336Z,0.81
2023-05-14T21:46:52.054Z,0.75
2023-05-14T21:49:56.582Z,0.74
2023-05-14T21:53:00.325Z,0.84
2023-05-14T21:56:04.436Z,1.06
2023-05-14T21:59:07.451Z,1.21
2023-05-14T22:02:11.360Z,1.34
2023-05-14T22:05:15.151Z,1.62
2023-05-14T22:08:18.661Z,2.36
2023-05-14T22:11:22.430Z,2.27
2023-05-14T22:14:28.132Z,2.10
2023-05-14T22:17:31.897Z,2.02
2023-05-14T22:20:35.724Z,1.89
2023-05-14T22:23:39.961Z,1.89
2023-05-14T22:26:43.703Z,1.95
2023-05-14T22:29:47.063Z,1.87
2023-05-14T22:32:51.314Z,1.89
2023-05-14T22:35:54.715Z,2.00
2023-05-14T22:38:58.869Z,2.50
2023-05-14T22:42:02.566Z,2.58
2023-05-14T22:45:06.870Z,2.42
2023-05-14T22:48:10.576Z,2.29
2023-05-14T22:51:14.538Z,2.22
2023-05-14T22:54:18.415Z,2.33
2023-05-14T22:57:22.763Z,2.25
2023-05-14T23:00:26.453Z,2.31
2023-05-14T23:03:30.718Z,2.34
2023-05-14T23:06:34.049Z,2.60
2023-05-14T23:09:38.033Z,2.45
2023-05-14T23:12:41.612Z,2.67
2023-05-14T23:15:45.586Z,2.81
2023-05-14T23:18:49.388Z,2.75
2023-05-14T23:21:53.615Z,2.85
2023-05-14T23:24:56.959Z,2.97
2023-05-14T23:28:00.542Z,3.05
2023-05-14T23:31:04.302Z,2.93
2023-05-14T23:34:08.242Z,2.86
2023-05-14T23:37:12.100Z,3.02
2023-05-14T23:40:16.758Z,3.06
2023-05-14T23:43:20.487Z,3.09
2023-05-14T23:46:25.067Z,3.25
2023-05-14T23:49:28.419Z,3.41
2023-05-14T23:52:32.364Z,3.49
2023-05-14T23:55:36.381Z,3.67
2023-05-14T23:58:40.623Z,3.65
